createdAt,value
2022-09-28T00:02:58.357Z,17.65
2022-09-28T00:31:55.711Z,17.64
2022-09-28T01:00:15.746Z,17.63
2022-09-28T01:28:58.354Z,17.62
2022-09-28T01:57:43.491Z,17.61
2022-09-28T02:26:25.708Z,17.6
2022-09-28T02:54:57.564Z,17.6
2022-09-28T03:23:41.249Z,17.58
2022-09-28T03:53:38.624Z,17.57
2022-09-28T04:21:51.091Z,17.58
2022-09-28T04:50:27.920Z,17.58
2022-09-28T05:19:14.997Z,17.56
2022-09-28T05:47:31.584Z,17.56
2022-09-28T06:16:24.920Z,17.54
2022-09-28T06:44:47.101Z,17.54
2022-09-28T07:13:49.386Z,17.54
2022-09-28T07:42:03.599Z,17.53
2022-09-28T08:10:46.470Z,17.53
2022-09-28T08:40:48.713Z,17.53
2022-09-28T09:08:13.517Z,17.53
2022-09-28T09:36:51.262Z,17.52
2022-09-28T10:05:23.014Z,17.53
2022-09-28T10:34:03.025Z,17.53
2022-09-28T11:02:23.632Z,17.53
2022-09-28T11:30:50.202Z,17.52
2022-09-28T11:59:14.645Z,17.52
2022-09-28T12:27:53.338Z,17.52
2022-09-28T12:56:25.258Z,17.53
2022-09-28T13:24:58.881Z,17.51
2022-09-28T13:53:34.012Z,17.52
2022-09-28T14:22:05.559Z,17.51
2022-09-28T14:50:32.569Z,17.52
2022-09-28T15:19:13.612Z,17.52
2022-09-28T15:47:27.326Z,17.51
2022-09-28T16:15:58.556Z,17.5
2022-09-28T16:44:24.338Z,17.5
2022-09-28T17:12:48.085Z,17.51
2022-09-28T17:41:22.255Z,17.5
2022-09-28T18:09:34.190Z,17.5
2022-09-28T18:38:15.058Z,17.12
2022-09-28T19:06:50.577Z,17.33
2022-09-28T19:35:19.152Z,17.48
2022-09-28T20:04:01.842Z,17.47
2022-09-28T20:32:40.206Z,17.47
2022-09-28T22:42:16.179Z,17.49
2022-09-28T23:10:10.325Z,17.46
2022-09-28T23:38:55.762Z,17.43
